Time;durP1;ratioP1;P1;durP2;ratioP2;P2;SDS_P1;SDS_P2;PMS_P1;PMS_P2;Temp;Humidity;BMP_temperature;BMP_pressure;BME280_temperature;BME280_humidity;BME280_pressure;Samples;Min_cycle;Max_cycle;Signal;HPM_P1;HPM_P2
2022/01/22 00:02:08;;;;;;;;;;;0.70;86.70;;;;;;5152219;27;19912;-88
2022/01/22 00:04:34;;;;;;;;;;;0.70;86.70;;;;;;5152140;27;19911;-87
2022/01/22 00:08:38;;;;;;;;;;;0.80;86.60;;;;;;5110990;27;19919;-88
2022/01/22 00:11:03;;;;;;;;;;;0.80;86.30;;;;;;5094287;28;19913;-88
2022/01/22 00:24:24;;;;;;;;;;;0.90;86.00;;;;;;5007493;28;19928;-88
2022/01/22 00:26:50;;;;;;;;;;;0.50;85.60;;;;;;5007372;28;19914;-88
2022/01/22 00:29:16;;;;;;;;;;;0.30;85.50;;;;;;5006195;28;19910;-87
2022/01/22 00:31:42;;;;;;;;;;;0.10;85.60;;;;;;4987802;28;20317;-88
2022/01/22 00:34:08;;;;;;;;;;;0.00;86.00;;;;;;4987777;28;19911;-88
2022/01/22 00:36:34;;;;;;;;;;;0.00;86.30;;;;;;4988046;28;19910;-88
2022/01/22 00:39:00;;;;;;;;;;;0.00;86.90;;;;;;4986475;28;19910;-87
2022/01/22 00:41:25;;;;;;;;;;;0.00;87.00;;;;;;5003091;28;20310;-87
2022/01/22 00:43:51;;;;;;;;;;;0.00;87.30;;;;;;5007089;28;19940;-87
2022/01/22 00:46:17;;;;;;;;;;;0.00;87.30;;;;;;5005396;28;19914;-88
2022/01/22 00:48:42;;;;;;;;;;;0.00;87.40;;;;;;5007102;28;19935;-87
2022/01/22 00:51:08;;;;;;;;;;;0.00;87.60;;;;;;5005285;28;19914;-87
2022/01/22 00:53:33;;;;;;;;;;;-3276.70;87.80;;;;;;5006987;28;19953;-87
2022/01/22 00:55:59;;;;;;;;;;;-3276.60;87.60;;;;;;5006973;28;19928;-88
2022/01/22 00:58:24;;;;;;;;;;;-3276.50;87.50;;;;;;5006988;28;19910;-88
2022/01/22 01:00:50;;;;;;;;;;;-3276.50;87.60;;;;;;5005188;28;19979;-88
2022/01/22 01:03:16;;;;;;;;;;;-3276.50;87.50;;;;;;5006795;28;19956;-88
2022/01/22 01:05:41;;;;;;;;;;;-3276.50;87.40;;;;;;5006791;28;19910;-88
2022/01/22 01:08:07;;;;;;;;;;;-3276.40;86.90;;;;;;5006793;28;19988;-88
2022/01/22 01:10:33;;;;;;;;;;;-3276.40;87.10;;;;;;4995122;28;19914;-88
2022/01/22 01:12:58;;;;;;;;;;;-3276.30;86.80;;;;;;4987771;28;19910;-87
2022/01/22 01:34:14;;;;;;;;;;;-3276.20;87.00;;;;;;4983259;28;19935;-88
2022/01/22 01:36:40;;;;;;;;;;;-3276.20;86.60;;;;;;4974176;28;19910;-88
2022/01/22 01:39:09;;;;;;;;;;;-3276.10;86.50;;;;;;4974693;28;19914;-88
2022/01/22 01:44:01;;;;;;;;;;;-3276.10;86.60;;;;;;4974053;28;19915;-88
2022/01/22 01:46:29;;;;;;;;;;;-3276.00;86.20;;;;;;4974724;28;19945;-88
2022/01/22 01:48:55;;;;;;;;;;;-3275.90;86.20;;;;;;4973778;28;19914;-88
2022/01/22 01:51:24;;;;;;;;;;;-3275.90;86.90;;;;;;4974014;28;19917;-88
2022/01/22 01:59:04;;;;;;;;;;;-3276.10;87.60;;;;;;4991873;28;20422;-88
2022/01/22 02:01:29;;;;;;;;;;;-3276.20;87.80;;;;;;4991301;28;20439;-88
2022/01/22 02:03:55;;;;;;;;;;;-3276.20;88.00;;;;;;4992878;28;19986;-88
2022/01/22 02:06:21;;;;;;;;;;;-3276.10;88.40;;;;;;4980893;28;19914;-88
2022/01/22 02:08:46;;;;;;;;;;;-3276.10;88.70;;;;;;4973646;28;19945;-88
2022/01/22 02:11:14;;;;;;;;;;;-3276.20;88.60;;;;;;4973675;28;20364;-89
2022/01/22 02:24:41;;;;;;;;;;;-3276.40;87.90;;;;;;4978196;28;19925;-88
2022/01/22 02:27:07;;;;;;;;;;;-3276.40;87.70;;;;;;4992476;28;20279;-88
2022/01/22 02:29:33;;;;;;;;;;;-3276.40;87.70;;;;;;4990792;28;20075;-88
2022/01/22 02:32:45;;;;;;;;;;;-3276.40;87.60;;;;;;4992464;28;19910;-88
2022/01/22 02:34:49;;;;;;;;;;;-3276.40;87.60;;;;;;4986560;28;19914;-88
2022/01/22 02:37:17;;;;;;;;;;;-3276.50;87.50;;;;;;4973276;28;19910;-88
2022/01/22 02:40:00;;;;;;;;;;;-3276.40;87.20;;;;;;4972947;28;20356;-88
2022/01/22 02:42:31;;;;;;;;;;;-3276.20;87.10;;;;;;4972921;28;20449;-88
2022/01/22 02:44:57;;;;;;;;;;;-3276.10;87.20;;;;;;4974161;28;19969;-88
2022/01/22 02:47:23;;;;;;;;;;;-3275.90;87.10;;;;;;4971838;28;20384;-88
2022/01/22 02:49:49;;;;;;;;;;;-3275.90;87.40;;;;;;4972841;28;19910;-88
2022/01/22 02:52:17;;;;;;;;;;;-3275.80;87.80;;;;;;4972798;28;19910;-88
2022/01/22 02:54:44;;;;;;;;;;;-3275.80;88.20;;;;;;4974018;28;19914;-88
2022/01/22 02:57:10;;;;;;;;;;;-3275.90;88.40;;;;;;4972751;28;20374;-88
2022/01/22 02:59:36;;;;;;;;;;;-3275.90;88.10;;;;;;4973646;28;19925;-88
2022/01/22 03:02:03;;;;;;;;;;;-3276.00;87.90;;;;;;4972624;28;19910;-88
2022/01/22 03:04:29;;;;;;;;;;;-3276.10;87.60;;;;;;4981699;28;19995;-88
2022/01/22 03:06:54;;;;;;;;;;;-3276.00;87.50;;;;;;4991985;28;19910;-88
2022/01/22 03:09:27;;;;;;;;;;;-3275.90;87.10;;;;;;4992128;28;19910;-88
2022/01/22 03:27:25;;;;;;;;;;;-3275.60;89.00;;;;;;4991910;28;19916;-88
2022/01/22 03:29:51;;;;;;;;;;;-3275.60;89.20;;;;;;4989912;28;19914;-88
2022/01/22 03:32:17;;;;;;;;;;;-3275.60;89.30;;;;;;4991576;28;19910;-88
2022/01/22 03:34:55;;;;;;;;;;;-3275.60;88.90;;;;;;4980804;28;20005;-88
2022/01/22 03:37:20;;;;;;;;;;;-3275.60;88.60;;;;;;4972125;28;19910;-88
2022/01/22 03:39:46;;;;;;;;;;;-3275.60;88.70;;;;;;4972088;28;19914;-88
2022/01/22 03:42:11;;;;;;;;;;;-3275.50;88.80;;;;;;4972020;28;19910;-88
2022/01/22 03:44:37;;;;;;;;;;;-3275.40;88.70;;;;;;4974593;28;20372;-88
2022/01/22 03:47:04;;;;;;;;;;;-3275.40;89.00;;;;;;4976402;28;20275;-88
2022/01/22 03:49:30;;;;;;;;;;;-3275.40;89.20;;;;;;4991373;28;19917;-88
2022/01/22 03:51:55;;;;;;;;;;;-3275.40;89.60;;;;;;4991329;28;19914;-88
2022/01/22 03:54:21;;;;;;;;;;;-3275.40;89.40;;;;;;4989620;28;19914;-88
2022/01/22 03:56:47;;;;;;;;;;;-3275.40;89.20;;;;;;4991082;28;19917;-88
2022/01/22 03:59:14;;;;;;;;;;;-3275.50;89.10;;;;;;4989695;28;19924;-88
2022/01/22 04:04:30;;;;;;;;;;;-3275.50;88.30;;;;;;4984518;28;19933;-88
2022/01/22 04:09:44;;;;;;;;;;;-3275.50;87.60;;;;;;4971613;28;19916;-88
2022/01/22 04:12:12;;;;;;;;;;;-3275.60;87.40;;;;;;4971644;28;19911;-88
2022/01/22 04:14:46;;;;;;;;;;;-3275.60;87.20;;;;;;4972603;28;19968;-88
2022/01/22 04:25:10;;;;;;;;;;;-3275.50;88.00;;;;;;4983766;28;19921;-88
2022/01/22 04:27:36;;;;;;;;;;;-3275.30;88.10;;;;;;4990458;28;19949;-88
2022/01/22 04:30:02;;;;;;;;;;;-3275.20;88.20;;;;;;4989467;28;19957;-88
2022/01/22 04:32:28;;;;;;;;;;;-3275.10;88.60;;;;;;4991360;28;20004;-88
2022/01/22 04:34:54;;;;;;;;;;;-3275.20;88.90;;;;;;4980009;28;19915;-88
2022/01/22 04:37:20;;;;;;;;;;;-3275.20;89.10;;;;;;4972589;28;19922;-88
2022/01/22 04:39:47;;;;;;;;;;;-3275.30;89.20;;;;;;4971342;28;20372;-88
2022/01/22 04:42:13;;;;;;;;;;;-3275.30;89.10;;;;;;4971258;28;19914;-88
2022/01/22 04:44:48;;;;;;;;;;;-3275.30;89.10;;;;;;4972239;28;19922;-88
2022/01/22 04:47:25;;;;;;;;;;;-3275.40;88.90;;;;;;4973226;28;19921;-88
2022/01/22 04:54:58;;;;;;;;;;;-3275.30;89.60;;;;;;4990867;28;19930;-88
2022/01/22 04:55:30;;;;;;;;;;;-3275.30;89.80;;;;;;4976536;28;19914;-88
2022/01/22 04:57:56;;;;;;;;;;;-3275.30;90.10;;;;;;4990512;28;20390;-88
2022/01/22 05:00:21;;;;;;;;;;;-3275.30;90.30;;;;;;4989079;28;19913;-88
2022/01/22 05:02:47;;;;;;;;;;;-3275.20;90.30;;;;;;4990673;28;20384;-87
2022/01/22 05:05:13;;;;;;;;;;;-3275.10;91.00;;;;;;4988750;28;20384;-88
2022/01/22 05:07:38;;;;;;;;;;;-3275.10;91.50;;;;;;4989117;28;19910;-87
2022/01/22 05:10:04;;;;;;;;;;;-3275.00;91.80;;;;;;4991986;28;19937;-87
2022/01/22 05:12:30;;;;;;;;;;;-3275.00;92.10;;;;;;4993760;28;20001;-87
2022/01/22 05:14:56;;;;;;;;;;;-3274.90;92.20;;;;;;4991988;28;19968;-87
2022/01/22 05:17:21;;;;;;;;;;;-3274.80;92.20;;;;;;4993931;28;19909;-87
2022/01/22 05:19:54;;;;;;;;;;;-3274.70;92.40;;;;;;4990470;28;19921;-88
2022/01/22 05:24:52;;;;;;;;;;;-3274.70;92.20;;;;;;4985436;28;20432;-87
2022/01/22 05:27:34;;;;;;;;;;;-3274.40;92.00;;;;;;4993427;28;20008;-88
2022/01/22 05:33:29;;;;;;;;;;;-3274.10;92.70;;;;;;4992241;28;19909;-87
2022/01/22 05:38:38;;;;;;;;;;;-3273.80;93.50;;;;;;4977087;28;20283;-88
2022/01/22 05:41:04;;;;;;;;;;;-3273.80;93.90;;;;;;4973865;28;19911;-88
2022/01/22 05:43:30;;;;;;;;;;;-3273.80;94.10;;;;;;4973924;28;19914;-88
2022/01/22 05:45:55;;;;;;;;;;;-3273.80;94.30;;;;;;4975836;28;20445;-87
2022/01/22 05:48:21;;;;;;;;;;;-3273.70;94.50;;;;;;4973756;28;19910;-88
2022/01/22 05:50:51;;;;;;;;;;;-3273.70;94.60;;;;;;4973687;28;19933;-88
2022/01/22 06:00:52;;;;;;;;;;;-3273.90;95.10;;;;;;4989381;28;19968;-88
2022/01/22 06:03:18;;;;;;;;;;;-3274.00;95.20;;;;;;4976438;28;19969;-89
2022/01/22 06:05:44;;;;;;;;;;;-3274.10;95.30;;;;;;4973472;28;19910;-88
2022/01/22 06:08:14;;;;;;;;;;;-3274.10;95.40;;;;;;4973382;28;19911;-89
2022/01/22 06:10:40;;;;;;;;;;;-3274.20;95.40;;;;;;4973662;28;19907;-88
2022/01/22 06:13:12;;;;;;;;;;;-3274.30;95.50;;;;;;4989266;28;20342;-88
2022/01/22 06:15:39;;;;;;;;;;;-3274.30;95.50;;;;;;4984535;28;19967;-88
2022/01/22 06:18:04;;;;;;;;;;;-3274.30;95.50;;;;;;4983559;28;19914;-88
2022/01/22 06:20:30;;;;;;;;;;;-3274.40;95.50;;;;;;4992552;28;19910;-88
2022/01/22 06:22:55;;;;;;;;;;;-3274.40;95.60;;;;;;4977592;28;19926;-88
2022/01/22 06:25:21;;;;;;;;;;;-3274.50;95.60;;;;;;4973188;28;19910;-89
2022/01/22 06:27:46;;;;;;;;;;;-3274.60;95.60;;;;;;4980477;28;20004;-89
2022/01/22 06:30:12;;;;;;;;;;;-3274.70;95.70;;;;;;4990823;28;19918;-88
2022/01/22 06:32:38;;;;;;;;;;;-3274.80;95.70;;;;;;4992695;28;19946;-88
2022/01/22 06:35:04;;;;;;;;;;;-3274.90;95.80;;;;;;4992435;28;20424;-88
2022/01/22 06:37:29;;;;;;;;;;;-3275.00;95.80;;;;;;4988233;28;20560;-88
2022/01/22 06:42:35;;;;;;;;;;;-3275.10;95.90;;;;;;4972920;28;20268;-88
2022/01/22 06:45:02;;;;;;;;;;;-3275.20;95.90;;;;;;4973836;28;19918;-88
2022/01/22 06:47:29;;;;;;;;;;;-3275.20;95.90;;;;;;4973062;28;19920;-88
2022/01/22 06:49:55;;;;;;;;;;;-3275.20;95.90;;;;;;4976986;28;19997;-88
2022/01/22 06:52:21;;;;;;;;;;;-3275.20;95.90;;;;;;4983690;28;19968;-88
2022/01/22 06:54:47;;;;;;;;;;;-3275.30;96.00;;;;;;4972829;28;20325;-88
2022/01/22 06:57:13;;;;;;;;;;;-3275.40;95.90;;;;;;4972756;28;19914;-88
2022/01/22 06:59:38;;;;;;;;;;;-3275.40;95.90;;;;;;4973699;28;20343;-89
2022/01/22 07:02:04;;;;;;;;;;;-3275.40;95.90;;;;;;4974664;28;19918;-88
2022/01/22 07:04:31;;;;;;;;;;;-3275.40;95.90;;;;;;4980568;28;20378;-88
2022/01/22 07:06:57;;;;;;;;;;;-3275.40;95.90;;;;;;4988891;28;19957;-88
2022/01/22 07:09:22;;;;;;;;;;;-3275.40;95.90;;;;;;4990025;28;19960;-88
2022/01/22 07:11:48;;;;;;;;;;;-3275.40;95.90;;;;;;4972728;28;19910;-88
2022/01/22 07:14:14;;;;;;;;;;;-3275.40;95.90;;;;;;4972456;28;19918;-88
2022/01/22 07:16:40;;;;;;;;;;;-3275.40;95.90;;;;;;4973438;28;19921;-88
2022/01/22 07:19:05;;;;;;;;;;;-3275.40;95.90;;;;;;4972141;28;20360;-89
2022/01/22 07:21:31;;;;;;;;;;;-3275.40;95.90;;;;;;4988199;28;20298;-88
2022/01/22 07:26:29;;;;;;;;;;;-3275.60;95.90;;;;;;4972609;28;19995;-89
2022/01/22 07:28:55;;;;;;;;;;;-3275.60;95.90;;;;;;4972018;28;19957;-89
2022/01/22 07:31:21;;;;;;;;;;;-3275.60;95.90;;;;;;4975110;28;20479;-89
2022/01/22 07:33:47;;;;;;;;;;;-3275.70;95.90;;;;;;4971662;28;19914;-89
2022/01/22 07:36:12;;;;;;;;;;;-3275.70;95.90;;;;;;4972175;28;20014;-89
2022/01/22 07:38:39;;;;;;;;;;;-3275.70;95.90;;;;;;4972106;28;19936;-88
2022/01/22 07:41:07;;;;;;;;;;;-3275.80;95.90;;;;;;4972064;28;20395;-89
2022/01/22 07:43:32;;;;;;;;;;;-3275.90;95.90;;;;;;4972947;28;19925;-89
2022/01/22 07:45:58;;;;;;;;;;;-3276.00;95.90;;;;;;4972823;28;19918;-89
2022/01/22 07:48:23;;;;;;;;;;;-3276.00;95.90;;;;;;4977366;28;20249;-88
2022/01/22 07:50:49;;;;;;;;;;;-3276.10;96.00;;;;;;4991355;28;19960;-88
2022/01/22 07:53:14;;;;;;;;;;;-3276.40;96.00;;;;;;4991337;28;20282;-88
2022/01/22 07:55:40;;;;;;;;;;;-3276.50;96.00;;;;;;4989590;28;19999;-87
2022/01/22 07:58:06;;;;;;;;;;;-3276.40;96.00;;;;;;4989545;28;19975;-87
2022/01/22 08:00:31;;;;;;;;;;;-3276.30;95.90;;;;;;4991223;28;19933;-88
2022/01/22 08:02:57;;;;;;;;;;;-3276.30;95.80;;;;;;4991139;28;19918;-88
2022/01/22 08:05:23;;;;;;;;;;;-3276.30;95.80;;;;;;4989482;28;19960;-88
2022/01/22 08:07:48;;;;;;;;;;;-3276.30;95.80;;;;;;4991020;28;19917;-88
2022/01/22 08:10:14;;;;;;;;;;;-3276.30;95.70;;;;;;4988710;28;19929;-88
2022/01/22 08:12:42;;;;;;;;;;;-3276.40;95.70;;;;;;4989950;28;20087;-88
2022/01/22 08:15:08;;;;;;;;;;;-3276.30;95.40;;;;;;4986606;28;19939;-88
2022/01/22 08:17:34;;;;;;;;;;;-3276.30;95.50;;;;;;4972580;28;20269;-88
2022/01/22 08:20:00;;;;;;;;;;;-3276.30;95.30;;;;;;4983327;28;19920;-88
2022/01/22 08:22:25;;;;;;;;;;;-3276.40;95.30;;;;;;4990653;23;19932;-88
2022/01/22 08:24:54;;;;;;;;;;;-3276.50;95.30;;;;;;5010386;28;20283;-88
2022/01/22 08:29:48;;;;;;;;;;;-3276.50;95.10;;;;;;5002840;28;19916;-88
2022/01/22 08:37:26;;;;;;;;;;;-3276.60;94.60;;;;;;5018114;28;20327;-88
2022/01/22 08:39:51;;;;;;;;;;;-3276.70;93.90;;;;;;5018068;28;19910;-88
2022/01/22 08:42:17;;;;;;;;;;;0.00;94.00;;;;;;5023624;28;19913;-88
2022/01/22 08:44:43;;;;;;;;;;;0.00;94.10;;;;;;5014087;28;19910;-88
2022/01/22 08:47:08;;;;;;;;;;;0.10;94.10;;;;;;5028970;28;19913;-88
2022/01/22 08:49:34;;;;;;;;;;;0.10;93.90;;;;;;5006379;28;19910;-88
2022/01/22 08:52:01;;;;;;;;;;;0.20;93.70;;;;;;5016499;28;19966;-88
2022/01/22 08:54:27;;;;;;;;;;;0.20;93.60;;;;;;5017787;28;19979;-88
2022/01/22 08:56:53;;;;;;;;;;;0.30;93.60;;;;;;5009513;28;19921;-88
2022/01/22 08:59:18;;;;;;;;;;;0.30;93.30;;;;;;5019087;28;19913;-88
2022/01/22 09:01:46;;;;;;;;;;;0.30;92.90;;;;;;5002756;28;19920;-88
2022/01/22 09:04:12;;;;;;;;;;;0.40;92.80;;;;;;5012918;28;20000;-88
2022/01/22 09:06:38;;;;;;;;;;;0.50;92.90;;;;;;5008471;28;19914;-88
2022/01/22 09:09:11;;;;;;;;;;;0.50;92.60;;;;;;5008071;28;19910;-88
2022/01/22 09:11:38;;;;;;;;;;;0.60;92.60;;;;;;5013613;28;19932;-88
2022/01/22 09:21:44;;;;;;;;;;;0.70;92.40;;;;;;5089201;27;20378;-88
2022/01/22 09:26:44;;;;;;;;;;;0.70;91.30;;;;;;5113677;27;19918;-88
2022/01/22 09:29:10;;;;;;;;;;;0.90;91.00;;;;;;5110773;28;19920;-87
2022/01/22 09:31:35;;;;;;;;;;;1.10;91.10;;;;;;5113668;28;20361;-87
2022/01/22 09:34:01;;;;;;;;;;;1.30;90.70;;;;;;5105771;28;19956;-87
2022/01/22 09:36:28;;;;;;;;;;;1.20;90.00;;;;;;5116533;28;20020;-87
2022/01/22 09:38:54;;;;;;;;;;;1.00;90.40;;;;;;5107508;28;19912;-87
2022/01/22 09:41:20;;;;;;;;;;;0.80;90.70;;;;;;5105326;28;19920;-87
2022/01/22 09:43:46;;;;;;;;;;;0.70;90.90;;;;;;5107257;28;19950;-87
2022/01/22 09:46:11;;;;;;;;;;;0.80;91.30;;;;;;5106952;28;19960;-87
2022/01/22 09:48:55;;;;;;;;;;;0.80;91.20;;;;;;5113108;28;19912;-87
2022/01/22 09:51:21;;;;;;;;;;;0.80;91.00;;;;;;5110119;28;19912;-87
2022/01/22 09:53:47;;;;;;;;;;;0.80;91.00;;;;;;5117938;28;19945;-87
2022/01/22 09:56:17;;;;;;;;;;;0.80;90.80;;;;;;5109290;28;20368;-87
2022/01/22 09:58:42;;;;;;;;;;;0.90;90.90;;;;;;5108105;28;19926;-87
2022/01/22 10:01:21;;;;;;;;;;;1.20;90.50;;;;;;5106546;28;20015;-87
2022/01/22 10:03:46;;;;;;;;;;;1.40;89.70;;;;;;5105217;28;19920;-87
2022/01/22 10:06:13;;;;;;;;;;;1.60;88.70;;;;;;5108705;28;19969;-87
2022/01/22 10:08:39;;;;;;;;;;;1.80;88.10;;;;;;5104457;28;20393;-87
2022/01/22 10:11:14;;;;;;;;;;;1.90;86.90;;;;;;5108972;28;20377;-87
2022/01/22 10:13:44;;;;;;;;;;;2.00;86.50;;;;;;5104859;28;19943;-87
2022/01/22 10:16:10;;;;;;;;;;;2.00;85.90;;;;;;5106764;28;19912;-87
2022/01/22 10:18:35;;;;;;;;;;;2.20;85.80;;;;;;5107825;28;19919;-88
2022/01/22 10:21:06;;;;;;;;;;;2.40;85.40;;;;;;5108234;28;19912;-88
2022/01/22 10:23:38;;;;;;;;;;;2.50;85.40;;;;;;5102646;28;19977;-88
2022/01/22 10:26:04;;;;;;;;;;;2.70;85.70;;;;;;5108560;28;19923;-87
2022/01/22 10:28:37;;;;;;;;;;;2.90;84.90;;;;;;5109179;28;19966;-88
2022/01/22 10:31:06;;;;;;;;;;;3.00;84.60;;;;;;5102925;28;20409;-88
2022/01/22 10:33:35;;;;;;;;;;;3.10;82.90;;;;;;5105445;28;20395;-87
2022/01/22 10:36:07;;;;;;;;;;;2.50;84.00;;;;;;5121204;28;19912;-88
2022/01/22 10:38:45;;;;;;;;;;;2.30;85.20;;;;;;5092412;28;19934;-87
2022/01/22 10:41:13;;;;;;;;;;;2.20;85.90;;;;;;5093614;28;19964;-87
2022/01/22 10:43:43;;;;;;;;;;;1.90;87.00;;;;;;5095856;28;19952;-88
2022/01/22 10:46:31;;;;;;;;;;;1.70;88.10;;;;;;5079960;28;19920;-87
2022/01/22 10:48:56;;;;;;;;;;;1.70;88.30;;;;;;5081680;28;19978;-87
2022/01/22 10:51:23;;;;;;;;;;;1.70;88.20;;;;;;5098847;28;19925;-87
2022/01/22 10:53:50;;;;;;;;;;;1.90;88.30;;;;;;5114912;28;19916;-87
2022/01/22 10:56:20;;;;;;;;;;;1.80;88.10;;;;;;5116185;28;19912;-87
2022/01/22 10:59:00;;;;;;;;;;;1.70;88.30;;;;;;5099922;28;19958;-88
2022/01/22 11:01:44;;;;;;;;;;;1.80;87.90;;;;;;5112963;28;19922;-87
2022/01/22 11:04:11;;;;;;;;;;;1.90;87.30;;;;;;5097816;28;19919;-88
2022/01/22 11:06:38;;;;;;;;;;;2.00;87.50;;;;;;5095409;28;19912;-87
2022/01/22 11:11:44;;;;;;;;;;;2.10;87.40;;;;;;5124665;27;19922;-88
2022/01/22 11:14:11;;;;;;;;;;;2.40;87.30;;;;;;5119820;28;19912;-87
2022/01/22 11:16:37;;;;;;;;;;;2.50;85.90;;;;;;5090719;28;19912;-88
2022/01/22 11:19:03;;;;;;;;;;;2.60;85.80;;;;;;5101474;28;20429;-87
2022/01/22 11:21:29;;;;;;;;;;;2.80;85.70;;;;;;5092675;28;20481;-87
2022/01/22 11:23:54;;;;;;;;;;;3.00;84.90;;;;;;5091832;28;19952;-87
2022/01/22 11:29:54;;;;;;;;;;;3.30;83.90;;;;;;5088641;27;2116216;-87
2022/01/22 11:34:40;;;;;;;;;;;2.90;84.10;;;;;;5110411;27;20369;-87
2022/01/22 11:37:10;;;;;;;;;;;2.70;86.00;;;;;;5111038;28;19951;-87
2022/01/22 11:43:13;;;;;;;;;;;3.00;85.40;;;;;;5152264;27;19911;-87
2022/01/22 11:45:43;;;;;;;;;;;3.60;83.40;;;;;;5138273;27;20369;-87
2022/01/22 11:48:10;;;;;;;;;;;3.80;82.70;;;;;;5150219;27;19911;-87
2022/01/22 11:50:35;;;;;;;;;;;4.10;82.40;;;;;;5137407;27;19912;-87
2022/01/22 11:53:20;;;;;;;;;;;4.30;81.60;;;;;;5131403;28;20441;-87
2022/01/22 11:56:04;;;;;;;;;;;4.70;82.20;;;;;;5131351;28;19953;-87
2022/01/22 11:58:30;;;;;;;;;;;5.20;79.40;;;;;;5151513;27;19915;-87
2022/01/22 12:00:55;;;;;;;;;;;5.80;77.60;;;;;;5150272;27;19964;-87
2022/01/22 12:03:21;;;;;;;;;;;6.10;76.20;;;;;;5151889;27;19938;-87
2022/01/22 12:05:53;;;;;;;;;;;6.60;74.40;;;;;;5151830;27;20424;-87
2022/01/22 12:08:19;;;;;;;;;;;7.30;71.20;;;;;;5132996;27;19911;-87
2022/01/22 12:14:27;;;;;;;;;;;7.40;68.80;;;;;;5131423;27;19947;-87
2022/01/22 12:16:39;;;;;;;;;;;7.30;69.00;;;;;;5132353;27;20383;-87
2022/01/22 12:19:25;;;;;;;;;;;7.50;68.30;;;;;;5113331;27;19960;-86
2022/01/22 12:21:50;;;;;;;;;;;7.80;67.20;;;;;;5143005;27;19916;-85
2022/01/22 12:24:29;;;;;;;;;;;7.90;66.40;;;;;;5130800;28;19908;-87
2022/01/22 12:26:59;;;;;;;;;;;8.20;65.90;;;;;;5130671;28;19908;-87
2022/01/22 12:29:29;;;;;;;;;;;8.50;65.10;;;;;;5131702;27;19993;-87
2022/01/22 12:32:09;;;;;;;;;;;8.80;63.20;;;;;;5143401;27;19911;-87
2022/01/22 12:34:51;;;;;;;;;;;8.90;62.50;;;;;;5151522;27;19908;-87
2022/01/22 12:37:18;;;;;;;;;;;8.90;61.90;;;;;;5151145;27;19994;-87
2022/01/22 12:39:48;;;;;;;;;;;9.20;61.10;;;;;;5149410;27;20034;-87
2022/01/22 12:42:23;;;;;;;;;;;9.50;58.80;;;;;;5150962;27;19942;-87
2022/01/22 12:44:56;;;;;;;;;;;9.30;59.40;;;;;;5130686;27;19911;-87
2022/01/22 12:47:22;;;;;;;;;;;9.60;58.70;;;;;;5151059;27;19954;-87
2022/01/22 12:49:57;;;;;;;;;;;9.60;58.20;;;;;;5149456;27;19959;-87
2022/01/22 12:52:25;;;;;;;;;;;10.00;57.30;;;;;;5150216;27;19929;-87
2022/01/22 12:54:56;;;;;;;;;;;10.50;54.70;;;;;;5136669;27;19935;-87
2022/01/22 12:57:24;;;;;;;;;;;10.40;53.70;;;;;;5137037;27;19908;-87
2022/01/22 12:59:51;;;;;;;;;;;10.20;53.80;;;;;;5135199;27;20346;-86
2022/01/22 13:02:17;;;;;;;;;;;10.10;54.70;;;;;;5136862;27;19982;-86
2022/01/22 13:04:56;;;;;;;;;;;10.30;53.80;;;;;;5137183;27;19915;-87
2022/01/22 13:07:21;;;;;;;;;;;10.00;54.80;;;;;;5136853;27;19914;-87
2022/01/22 13:09:48;;;;;;;;;;;9.90;54.20;;;;;;5134908;27;19911;-87
2022/01/22 13:12:14;;;;;;;;;;;10.00;53.50;;;;;;5136729;27;19956;-86
2022/01/22 13:14:39;;;;;;;;;;;9.60;54.70;;;;;;5134865;27;19916;-87
2022/01/22 13:17:10;;;;;;;;;;;9.70;54.20;;;;;;5125415;27;19918;-88
2022/01/22 13:19:37;;;;;;;;;;;9.80;53.50;;;;;;5134829;27;19960;-88
2022/01/22 13:22:03;;;;;;;;;;;10.20;52.40;;;;;;5129332;27;19916;-87
2022/01/22 13:24:29;;;;;;;;;;;10.60;50.60;;;;;;5114516;27;19918;-87
2022/01/22 13:27:09;;;;;;;;;;;11.10;49.90;;;;;;5123082;27;19915;-88
2022/01/22 13:29:37;;;;;;;;;;;11.50;48.70;;;;;;5116454;28;19973;-87
2022/01/22 13:32:07;;;;;;;;;;;11.60;47.80;;;;;;5097632;28;19957;-88
2022/01/22 13:34:50;;;;;;;;;;;11.90;48.70;;;;;;5121818;27;19918;-87
2022/01/22 13:37:53;;;;;;;;;;;11.80;49.40;;;;;;5120261;27;19912;-86
2022/01/22 13:40:28;;;;;;;;;;;11.50;49.10;;;;;;5115247;27;20006;-87
2022/01/22 13:48:29;;;;;;;;;;;10.90;51.10;;;;;;5120170;27;19912;-86
2022/01/22 13:50:55;;;;;;;;;;;10.80;50.90;;;;;;5135407;27;19907;-85
2022/01/22 13:53:21;;;;;;;;;;;10.40;51.30;;;;;;5135891;27;19907;-86
2022/01/22 13:56:17;;;;;;;;;;;10.50;52.10;;;;;;5123933;27;19912;-86
2022/01/22 13:58:43;;;;;;;;;;;11.10;50.00;;;;;;5094394;28;20369;-86
2022/01/22 14:01:39;;;;;;;;;;;11.50;49.40;;;;;;5116291;27;19986;-87
2022/01/22 14:04:06;;;;;;;;;;;11.90;47.90;;;;;;5114896;28;20373;-86
2022/01/22 14:06:32;;;;;;;;;;;12.40;46.80;;;;;;5116873;27;19957;-87
2022/01/22 14:09:10;;;;;;;;;;;12.90;45.80;;;;;;5115029;28;19907;-87
2022/01/22 14:11:36;;;;;;;;;;;13.10;43.90;;;;;;5115024;28;19957;-87
2022/01/22 14:14:02;;;;;;;;;;;13.40;44.80;;;;;;5115003;28;19911;-87
2022/01/22 14:16:29;;;;;;;;;;;13.30;43.40;;;;;;5130579;27;19918;-87
2022/01/22 14:18:54;;;;;;;;;;;12.80;44.90;;;;;;5135397;27;20284;-87
2022/01/22 14:21:22;;;;;;;;;;;13.30;44.30;;;;;;5135373;27;20161;-88
2022/01/22 14:23:52;;;;;;;;;;;13.80;42.80;;;;;;5135341;27;19946;-87
2022/01/22 14:26:27;;;;;;;;;;;14.30;41.00;;;;;;5118829;27;19919;-88
2022/01/22 14:28:57;;;;;;;;;;;13.90;41.30;;;;;;5114613;28;19908;-88
2022/01/22 14:31:32;;;;;;;;;;;13.20;43.30;;;;;;5115965;27;19964;-88
2022/01/22 14:34:00;;;;;;;;;;;13.40;42.00;;;;;;5114897;28;19998;-87
2022/01/22 14:36:28;;;;;;;;;;;13.10;42.90;;;;;;5131388;27;20288;-87
2022/01/22 14:43:46;;;;;;;;;;;12.50;43.60;;;;;;5135280;27;20103;-87
2022/01/22 14:44:43;;;;;;;;;;;12.80;44.10;;;;;;5133169;27;20292;-87
2022/01/22 14:47:08;;;;;;;;;;;13.30;42.50;;;;;;5128660;27;19912;-87
2022/01/22 14:49:35;;;;;;;;;;;13.60;41.40;;;;;;5114338;28;19912;-87
2022/01/22 14:52:02;;;;;;;;;;;13.90;40.60;;;;;;5115308;27;19943;-87
2022/01/22 14:54:30;;;;;;;;;;;14.00;40.60;;;;;;5114175;28;19947;-87
2022/01/22 14:56:55;;;;;;;;;;;13.80;40.90;;;;;;5095935;28;19908;-87
2022/01/22 14:59:21;;;;;;;;;;;13.30;42.00;;;;;;5114138;28;19953;-87
2022/01/22 15:01:47;;;;;;;;;;;13.10;42.60;;;;;;5115065;27;19915;-87
2022/01/22 15:04:12;;;;;;;;;;;13.20;43.30;;;;;;5096200;28;19912;-87
2022/01/22 15:06:38;;;;;;;;;;;12.90;43.70;;;;;;5114021;28;20273;-87
2022/01/22 15:09:05;;;;;;;;;;;12.70;44.10;;;;;;5114165;28;19912;-87
2022/01/22 15:11:33;;;;;;;;;;;12.90;44.00;;;;;;5131673;27;19950;-87
2022/01/22 15:14:01;;;;;;;;;;;12.90;43.20;;;;;;5134379;27;19907;-87
2022/01/22 15:16:34;;;;;;;;;;;12.30;44.80;;;;;;5132607;27;19911;-87
2022/01/22 15:19:02;;;;;;;;;;;12.20;45.20;;;;;;5134369;27;19911;-87
2022/01/22 15:21:28;;;;;;;;;;;11.60;46.40;;;;;;5132458;27;19921;-87
2022/01/22 15:23:54;;;;;;;;;;;11.20;46.80;;;;;;5134553;27;20001;-87
2022/01/22 15:26:19;;;;;;;;;;;10.70;48.10;;;;;;5134283;27;19915;-87
2022/01/22 15:28:46;;;;;;;;;;;10.10;50.30;;;;;;5134140;27;20288;-87
2022/01/22 15:31:32;;;;;;;;;;;9.70;51.40;;;;;;5132425;27;20349;-87
2022/01/22 15:34:39;;;;;;;;;;;9.10;52.60;;;;;;5115795;28;19989;-87
2022/01/22 15:36:51;;;;;;;;;;;8.90;53.60;;;;;;5131787;27;19942;-87
2022/01/22 15:39:17;;;;;;;;;;;8.30;56.80;;;;;;5134121;27;20273;-87
2022/01/22 15:41:43;;;;;;;;;;;7.80;58.70;;;;;;5132053;28;20038;-87
2022/01/22 15:44:09;;;;;;;;;;;7.50;60.10;;;;;;5114566;28;19912;-87
2022/01/22 15:46:41;;;;;;;;;;;7.20;61.40;;;;;;5096257;28;20010;-87
2022/01/22 15:49:08;;;;;;;;;;;7.10;61.70;;;;;;5113744;28;19908;-87
2022/01/22 15:51:33;;;;;;;;;;;6.90;62.30;;;;;;5130746;28;19951;-87
2022/01/22 15:53:59;;;;;;;;;;;6.80;62.40;;;;;;5129303;28;20024;-87
2022/01/22 15:56:25;;;;;;;;;;;6.70;62.80;;;;;;5113427;28;19908;-88
2022/01/22 15:58:50;;;;;;;;;;;6.60;62.50;;;;;;5113425;28;19991;-87
2022/01/22 16:01:16;;;;;;;;;;;6.40;62.70;;;;;;5114383;28;20246;-87
2022/01/22 16:03:45;;;;;;;;;;;6.30;62.40;;;;;;5113415;28;19908;-87
2022/01/22 16:06:19;;;;;;;;;;;6.10;63.40;;;;;;5113374;28;19950;-87
2022/01/22 16:08:46;;;;;;;;;;;5.80;64.30;;;;;;5113275;28;19915;-87
2022/01/22 16:11:11;;;;;;;;;;;5.50;65.10;;;;;;5126639;28;20392;-87
2022/01/22 16:13:37;;;;;;;;;;;5.30;66.60;;;;;;5133830;28;19915;-87
2022/01/22 16:16:03;;;;;;;;;;;5.20;67.00;;;;;;5132014;28;19977;-87
2022/01/22 16:18:28;;;;;;;;;;;5.00;66.80;;;;;;5131973;28;19992;-87
2022/01/22 16:20:54;;;;;;;;;;;4.90;67.50;;;;;;5133686;28;19961;-87
2022/01/22 16:23:20;;;;;;;;;;;4.80;68.70;;;;;;5134021;28;20458;-87
2022/01/22 16:25:45;;;;;;;;;;;4.70;69.90;;;;;;5133712;28;19908;-87
2022/01/22 16:28:11;;;;;;;;;;;4.70;69.20;;;;;;5128574;27;19922;-87
2022/01/22 16:30:37;;;;;;;;;;;4.60;68.90;;;;;;5118057;27;19932;-87
2022/01/22 16:33:03;;;;;;;;;;;4.50;69.80;;;;;;5117021;28;19956;-87
2022/01/22 16:35:28;;;;;;;;;;;4.40;69.20;;;;;;5116917;28;19998;-87
2022/01/22 16:37:54;;;;;;;;;;;4.40;68.60;;;;;;5118219;27;20003;-87